Vilonia, AR (72173)

11:33 AM CDT on May 24, 2017 (GMT -0500)
Lower Ridge Critterville | | Change Station

Elev 371 ft 35.10 °N, 92.35 °W | Updated 48 seconds ago

Overcast
Overcast
63.0 °F
Feels Like 63.0 °F
N
1.6
Wind Variable Wind from West
Gusts 3.1 mph

Today
High -- | Low -- °F
--% Chance of Precip.
Yesterday
High -- | Low -- °F
Precip. -- in
Pressure 29.67 in
Visibility 10.0 miles
Clouds Few 2900 ft
Scattered Clouds 5000 ft
Mostly Cloudy 7000 ft
Mostly Cloudy 16000 ft
Mostly Cloudy 19000 ft
Dew Point 55 °F
Humidity 75%
Rainfall 0.00 in
Snow Depth Not available.
5:59 AM 8:12 PM
Waning Crescent, 2% visible
METAR KLRF 241558Z AUTO 30008KT 10SM FEW029 SCT050 BKN070 BKN160 BKN190 17/12 A2966 RMK AO2 SLP045 T01720117
Pressure 29.67 in
Visibility 10.0 miles
Clouds Few 2900 ft
Scattered Clouds 5000 ft
Mostly Cloudy 7000 ft
Mostly Cloudy 16000 ft
Mostly Cloudy 19000 ft
Dew Point 55 °F
Humidity 75%
Rainfall 0.00 in
Snow Depth Not available.
5:59 AM 8:12 PM
Waning Crescent, 2% visible
METAR KLRF 241558Z AUTO 30008KT 10SM FEW029 SCT050 BKN070 BKN160 BKN190 17/12 A2966 RMK AO2 SLP045 T01720117

Get Severe Weather Alerts

Thanks for signing up!

Be on the lookout for a verification email in your inbox.

You'll start receiving the daily forecast at 6 AM.

×

10-Day Weather Forecast

Almanac

Astronomy

May. 24, 2017 Rise Set
Actual Time
Civil Twilight
Nautical Twilight
Astronomical Twilight
Moon
Length of Visible Light
Length of Day
Tomorrow will be .
, % of the Moon is Illuminated

Today's Extremes

State Highs State Lows

Community

WunderPhotos

Category 6

Welcome to Category 6. This is the collective home for Weather Underground's featured writeups by Dr. Jeff Masters (right), Bob Henson (left), Chris Burt, and other regular contributors.

Nearby

Air Quality

  Air Quality AQ Index Pollutant
Not available.

Snow Depth

Station Depth Elevation

Earthquake Activity

City Distance Mag. Time & Date
Minimum magnitude displayed is 2.5.

Coastal Water Temperatures

Place Temperature

Stations

Nearby Weather Stations

Station Location Temp. Windchill Dew Point Humidity Wind Precip. Elev Updated Type
                   

Watches & Warnings

There are currently no watches in effect.